Weather History for KGTB - November, 2012

Change the Weather History Date:

Thursday, November 1, 2012

  Actual Average Record
Temperature  
Mean Temperature 42 °F -  
Max Temperature 45 °F 47 °F 69 °F (2001)
Min Temperature 38 °F 31 °F 21 °F (2000)
Degree Days  
Heating Degree Days 24    
Moisture  
Dew Point 40 °F    
Average Humidity 92    
Maximum Humidity 100    
Minimum Humidity 81    
Precipitation  
Precipitation 0.18 in - - ()
Sea Level Pressure  
Sea Level Pressure 29.46 in    
Wind  
Wind Speed 9 mph (SW)    
Max Wind Speed 16 mph    
Max Gust Speed 24 mph    
Visibility 9 miles    
Events Rain    
Averages and records for this station are not official NWS values.
T = Trace of Precipitation, MM = Missing Value Source: NWS Daily Summary

Daily Weather History Graph

Daily Weather History Graph

Search for Another Location

Airport or City:

Trip Planner

Search our weather history database for the weather conditions in past years. The results will help you decide how hot, cold, wet, or windy it might be!

Date:

Astronomy

Nov. 01, 2012 Rise Set
Actual Time 7:40 AM EDT 5:52 PM EDT
Civil Twilight 7:09 AM EDT 6:22 PM EDT
Nautical Twilight 6:35 AM EDT 6:56 PM EDT
Astronomical Twilight 6:02 AM EDT 7:30 PM EDT
Moon 7:42 PM EDT (11/1) 10:15 AM EDT (11/1)
Length of Visible Light 11h 12m
Length of Day
10h 12m
Waning Gibbous, 93% of the Moon is Illuminated
Nov 1
Waning Gibbous
Nov 6
Last Quarter
Nov 13
New
Nov 20
First Quarter
Nov 28
Full

Hourly Weather History & Observations

Time (EDT) Temp. Windchill Dew Point Humidity Pressure Visibility Wind Dir Wind Speed Gust Speed Precip Events Conditions
12:10 AM 41.0 °F 36.4 °F 35.6 °F 81% 29.46 in 10.0 mi SSE 6.9 mph - N/A   Overcast
12:55 AM 41.4 °F 36.2 °F 35.8 °F 81% 29.46 in 10.0 mi SSE 8.1 mph - N/A   Overcast
1:32 AM 41.0 °F 36.4 °F 35.6 °F 81% 29.46 in 10.0 mi SSE 6.9 mph - N/A   Overcast
1:55 AM 41.0 °F 36.4 °F 36.3 °F 83% 29.45 in 10.0 mi SSE 6.9 mph - N/A   Overcast
2:55 AM 41.2 °F 37.3 °F 37.0 °F 85% 29.45 in 10.0 mi South 5.8 mph - N/A   Mostly Cloudy
2:56 AM 41.0 °F 37.1 °F 37.4 °F 87% 29.45 in 10.0 mi South 5.8 mph - N/A   Light Drizzle
3:16 AM 41.0 °F 37.1 °F 37.4 °F 87% 29.44 in 10.0 mi South 5.8 mph - N/A   Mostly Cloudy
3:55 AM 41.2 °F 37.3 °F 36.7 °F 84% 29.43 in 10.0 mi South 5.8 mph - 0.00 in   Overcast
4:48 AM 41.0 °F 35.8 °F 37.4 °F 87% 29.42 in 10.0 mi SSE 8.1 mph - N/A   Overcast
4:55 AM 41.4 °F 36.2 °F 37.2 °F 85% 29.42 in 10.0 mi SSE 8.1 mph - N/A   Overcast
5:47 AM 41.0 °F 35.8 °F 37.4 °F 87% 29.42 in 10.0 mi SSE 8.1 mph - N/A   Light Drizzle
5:53 AM 41.0 °F 35.8 °F 37.4 °F 87% 29.42 in 10.0 mi SSE 8.1 mph - N/A   Light Drizzle
5:55 AM 41.5 °F 35.9 °F 37.8 °F 86% 29.42 in 10.0 mi SSE 9.2 mph - 0.00 in   Light Drizzle
6:04 AM 41.0 °F 35.8 °F 37.4 °F 87% 29.42 in 10.0 mi SSE 8.1 mph - N/A   Scattered Clouds
6:11 AM 41.0 °F 35.2 °F 37.4 °F 87% 29.42 in 10.0 mi SE 9.2 mph - N/A   Mostly Cloudy
6:33 AM 41.0 °F 35.8 °F 39.2 °F 93% 29.41 in 10.0 mi SSE 8.1 mph - N/A   Light Drizzle
6:36 AM 41.0 °F 35.8 °F 39.2 °F 93% 29.42 in 10.0 mi SSE 8.1 mph - N/A   Light Drizzle
6:55 AM 41.5 °F 36.4 °F 39.0 °F 91% 29.41 in 10.0 mi SSE 8.1 mph - 0.00 in Rain Light Rain
7:26 AM 41.0 °F 35.2 °F 39.2 °F 93% 29.42 in 9.0 mi SSE 9.2 mph - N/A   Overcast
7:35 AM 41.0 °F 34.7 °F 39.2 °F 93% 29.42 in 7.0 mi SSE 10.4 mph - N/A   Overcast
7:36 AM 41.0 °F 34.7 °F 39.2 °F 93% 29.41 in 8.0 mi SSE 10.4 mph - N/A   Overcast
7:37 AM 41.0 °F 34.7 °F 39.2 °F 93% 29.41 in 8.0 mi SSE 10.4 mph - N/A Rain Light Rain
7:55 AM 41.4 °F 35.7 °F 40.1 °F 95% 29.41 in 10.0 mi SSE 9.2 mph - 0.04 in Rain Light Rain
8:04 AM 41.0 °F 34.3 °F 41.0 °F 100% 29.42 in 10.0 mi SSE 11.5 mph - N/A   Light Drizzle
8:29 AM 41.0 °F 34.7 °F 41.0 °F 100% 29.42 in 10.0 mi SSE 10.4 mph - N/A   Overcast
8:45 AM 42.8 °F 36.6 °F 41.0 °F 93% 29.42 in 10.0 mi South 11.5 mph - N/A   Overcast
8:55 AM 42.1 °F 36.1 °F 41.5 °F 98% 29.42 in 10.0 mi South 10.4 mph - 0.00 in   Overcast
9:06 AM 42.8 °F 36.2 °F 42.8 °F 100% 29.42 in 10.0 mi South 12.7 mph - N/A   Overcast
9:46 AM 44.6 °F 37.8 °F 42.8 °F 93% 29.42 in 10.0 mi SSW 15.0 mph - N/A   Overcast
9:55 AM 44.1 °F 37.1 °F 42.1 °F 93% 29.42 in 4.0 mi SSW 15.0 mph - 0.00 in   Overcast
9:57 AM 44.6 °F 38.4 °F 42.8 °F 93% 29.42 in 4.0 mi SSW 12.7 mph - N/A   Overcast
10:03 AM 44.6 °F 38.1 °F 42.8 °F 93% 29.42 in 6.0 mi SSW 13.8 mph - N/A   Light Drizzle
10:19 AM 44.6 °F 38.4 °F 42.8 °F 93% 29.42 in 2.5 mi SSW 12.7 mph - N/A   Overcast
10:22 AM 44.6 °F 38.1 °F 42.8 °F 93% 29.42 in 2.5 mi SSW 13.8 mph - N/A   Overcast
10:30 AM 44.6 °F 39.2 °F 42.8 °F 93% 29.42 in 2.5 mi SSW 10.4 mph - N/A   Overcast
10:35 AM 44.6 °F 38.4 °F 42.8 °F 93% 29.42 in 3.0 mi SSW 12.7 mph - N/A   Overcast
10:48 AM 44.6 °F 38.4 °F 42.8 °F 93% 29.42 in 10.0 mi SW 12.7 mph 20.7 mph N/A   Overcast
10:55 AM 45.0 °F 40.1 °F 43.7 °F 95% 29.42 in 10.0 mi SW 9.2 mph 18.4 mph 0.01 in   Overcast
11:02 AM 44.6 °F 38.8 °F 42.8 °F 93% 29.42 in 10.0 mi SW 11.5 mph 18.4 mph N/A   Overcast
11:04 AM 44.6 °F 38.8 °F 42.8 °F 93% 29.42 in 10.0 mi SW 11.5 mph 18.4 mph N/A   Light Drizzle
11:22 AM 44.6 °F 37.8 °F 42.8 °F 93% 29.43 in 4.0 mi SW 15.0 mph 19.6 mph N/A Rain Light Rain
11:35 AM 44.6 °F 38.4 °F 42.8 °F 93% 29.43 in 4.0 mi WSW 12.7 mph - N/A Rain Light Rain
11:55 AM 44.2 °F 37.3 °F 42.8 °F 95% 29.44 in 10.0 mi WSW 15.0 mph 23.0 mph 0.02 in Rain Light Rain
11:59 AM 44.6 °F 38.8 °F 42.8 °F 93% 29.44 in 10.0 mi WSW 11.5 mph 21.9 mph N/A Rain Light Rain
12:03 PM 44.6 °F 39.7 °F 42.8 °F 93% 29.44 in 10.0 mi WSW 9.2 mph 21.9 mph N/A Rain Light Rain
12:06 PM 44.6 °F 38.4 °F 42.8 °F 93% 29.44 in 10.0 mi SW 12.7 mph 21.9 mph N/A Rain Light Rain
12:10 PM 44.6 °F 38.4 °F 41.0 °F 87% 29.44 in 10.0 mi SW 12.7 mph 19.6 mph N/A Rain Light Rain
12:12 PM 42.8 °F 35.1 °F 41.0 °F 93% 29.44 in 10.0 mi WSW 16.1 mph 19.6 mph N/A Rain Light Rain
12:17 PM 42.8 °F 35.8 °F 41.0 °F 93% 29.44 in 10.0 mi WSW 13.8 mph - N/A Rain Light Rain
12:19 PM 42.8 °F 36.2 °F 41.0 °F 93% 29.44 in 10.0 mi WSW 12.7 mph - N/A Rain Light Rain
12:48 PM 42.8 °F 36.2 °F 41.0 °F 93% 29.44 in 10.0 mi WSW 12.7 mph 21.9 mph N/A Rain Light Rain
12:55 PM 42.8 °F 37.0 °F 40.5 °F 91% 29.44 in 10.0 mi WSW 10.4 mph 21.9 mph 0.01 in Rain Light Rain
1:13 PM 42.8 °F 35.4 °F 41.0 °F 93% 29.44 in 10.0 mi WSW 15.0 mph - N/A Rain Light Rain
1:41 PM 42.8 °F 36.2 °F 41.0 °F 93% 29.45 in 10.0 mi WSW 12.7 mph 23.0 mph N/A   Light Drizzle
1:48 PM 42.8 °F 37.5 °F 41.0 °F 93% 29.45 in 10.0 mi West 9.2 mph 23.0 mph N/A   Light Drizzle
1:54 PM 42.8 °F 36.6 °F 39.2 °F 87% 29.45 in 10.0 mi West 11.5 mph 21.9 mph N/A   Light Drizzle
1:55 PM 42.6 °F 36.3 °F 39.9 °F 90% 29.45 in 10.0 mi West 11.5 mph 21.9 mph 0.01 in   Light Drizzle
2:03 PM 42.8 °F 37.0 °F 41.0 °F 93% 29.45 in 10.0 mi West 10.4 mph - N/A   Light Drizzle
2:06 PM 42.8 °F 36.6 °F 41.0 °F 93% 29.45 in 10.0 mi West 11.5 mph 19.6 mph N/A   Light Drizzle
2:08 PM 42.8 °F 37.0 °F 41.0 °F 93% 29.45 in 10.0 mi West 10.4 mph 19.6 mph N/A   Light Drizzle
2:13 PM 42.8 °F 36.6 °F 41.0 °F 93% 29.45 in 10.0 mi WSW 11.5 mph 19.6 mph N/A   Light Drizzle
2:15 PM 42.8 °F 37.0 °F 41.0 °F 93% 29.45 in 10.0 mi WSW 10.4 mph 18.4 mph N/A   Light Drizzle
2:17 PM 42.8 °F 37.0 °F 41.0 °F 93% 29.45 in 10.0 mi WSW 10.4 mph 18.4 mph N/A   Light Drizzle
2:18 PM 42.8 °F 37.0 °F 41.0 °F 93% 29.45 in 10.0 mi WSW 10.4 mph 18.4 mph N/A   Light Drizzle
2:19 PM 42.8 °F 37.0 °F 41.0 °F 93% 29.45 in 10.0 mi WSW 10.4 mph 18.4 mph N/A   Light Drizzle
2:24 PM 42.8 °F 37.0 °F 41.0 °F 93% 29.45 in 10.0 mi West 10.4 mph 18.4 mph N/A   Light Drizzle
2:38 PM 42.8 °F 35.8 °F 41.0 °F 93% 29.45 in 10.0 mi West 13.8 mph 24.2 mph N/A Rain Light Rain
2:55 PM 42.6 °F 36.3 °F 39.6 °F 89% 29.46 in 10.0 mi West 11.5 mph - 0.00 in Rain Light Rain
2:59 PM 42.8 °F 37.5 °F 39.2 °F 87% 29.46 in 10.0 mi West 9.2 mph - N/A Rain Light Rain
3:01 PM 42.8 °F 37.5 °F 39.2 °F 87% 29.46 in 10.0 mi WSW 9.2 mph - N/A Rain Light Rain
3:09 PM 42.8 °F 37.5 °F 39.2 °F 87% 29.46 in 10.0 mi WSW 9.2 mph - N/A Rain Light Rain
3:32 PM 42.8 °F 38.0 °F 39.2 °F 87% 29.46 in 10.0 mi WSW 8.1 mph - N/A   Light Drizzle
3:55 PM 42.6 °F 37.8 °F 40.8 °F 93% 29.47 in 10.0 mi West 8.1 mph - 0.01 in Rain Light Rain
4:12 PM 42.8 °F 37.5 °F 41.0 °F 93% 29.47 in 10.0 mi West 9.2 mph - N/A Rain Light Rain
4:28 PM 42.8 °F 38.0 °F 41.0 °F 93% 29.47 in 10.0 mi West 8.1 mph - N/A Rain Light Rain
4:55 PM 41.5 °F 36.4 °F 39.9 °F 94% 29.48 in 10.0 mi West 8.1 mph - 0.02 in   Light Drizzle
4:58 PM 41.0 °F 35.2 °F 39.2 °F 93% 29.48 in 10.0 mi WSW 9.2 mph - N/A   Overcast
5:00 PM 41.0 °F 36.4 °F 39.2 °F 93% 29.48 in 10.0 mi WSW 6.9 mph - N/A   Overcast
5:06 PM 41.0 °F 35.8 °F 39.2 °F 93% 29.48 in 10.0 mi WSW 8.1 mph - N/A   Mostly Cloudy
5:18 PM 41.0 °F 34.3 °F 41.0 °F 100% 29.49 in 10.0 mi WSW 11.5 mph - N/A   Light Drizzle
5:32 PM 41.0 °F 36.4 °F 41.0 °F 100% 29.49 in 6.0 mi WSW 6.9 mph - N/A   Light Drizzle
5:44 PM 41.0 °F 35.8 °F 41.0 °F 100% 29.49 in 10.0 mi West 8.1 mph - N/A   Light Drizzle
5:55 PM 41.2 °F 36.0 °F 40.3 °F 97% 29.49 in 10.0 mi West 8.1 mph - 0.00 in   Light Drizzle
6:02 PM 41.0 °F 36.4 °F 41.0 °F 100% 29.50 in 9.0 mi West 6.9 mph - N/A   Light Drizzle
6:44 PM 41.0 °F 35.8 °F 41.0 °F 100% 29.51 in 6.0 mi WSW 8.1 mph - N/A Rain Rain
6:47 PM 41.0 °F 37.1 °F 41.0 °F 100% 29.51 in 7.0 mi WSW 5.8 mph - N/A Rain Light Rain
6:53 PM 41.0 °F 35.8 °F 41.0 °F 100% 29.51 in 10.0 mi WSW 8.1 mph - N/A   Light Drizzle
6:54 PM 41.0 °F 36.4 °F 41.0 °F 100% 29.51 in 10.0 mi WSW 6.9 mph - N/A   Light Drizzle
6:55 PM 41.2 °F 36.6 °F 40.6 °F 98% 29.51 in 10.0 mi WSW 6.9 mph - 0.02 in   Light Drizzle
7:05 PM 41.0 °F 35.8 °F 41.0 °F 100% 29.51 in 10.0 mi WSW 8.1 mph - N/A   Light Drizzle
7:12 PM 41.0 °F 35.8 °F 41.0 °F 100% 29.51 in 10.0 mi WSW 8.1 mph - N/A Rain Light Rain
7:18 PM 41.0 °F 37.1 °F 41.0 °F 100% 29.51 in 10.0 mi WSW 5.8 mph - N/A   Light Drizzle
7:55 PM 41.4 °F 37.6 °F 40.6 °F 97% 29.52 in 10.0 mi WSW 5.8 mph - 0.01 in Rain Light Rain
8:55 PM 40.8 °F 34.5 °F 39.4 °F 95% 29.52 in 10.0 mi West 10.4 mph 18.4 mph 0.02 in Rain Light Rain
9:55 PM 39.7 °F 36.5 °F 37.6 °F 92% 29.53 in 10.0 mi West 4.6 mph - 0.01 in   Light Drizzle
10:46 PM 39.2 °F 35.0 °F 35.6 °F 87% 29.54 in 10.0 mi Variable 5.8 mph - N/A   Overcast
10:49 PM 39.2 °F 34.2 °F 35.6 °F 87% 29.54 in 10.0 mi West 6.9 mph - N/A   Light Drizzle
10:55 PM 38.8 °F 34.6 °F 36.3 °F 91% 29.54 in 10.0 mi West 5.8 mph - 0.00 in   Light Drizzle
11:00 PM 39.2 °F 35.0 °F 35.6 °F 87% 29.54 in 10.0 mi West 5.8 mph - N/A   Overcast
11:14 PM 39.2 °F 34.2 °F 35.6 °F 87% 29.54 in 10.0 mi West 6.9 mph - N/A   Overcast
11:18 PM 39.2 °F 33.6 °F 35.6 °F 87% 29.54 in 10.0 mi West 8.1 mph - N/A   Overcast
11:24 PM 39.2 °F 34.2 °F 35.6 °F 87% 29.54 in 10.0 mi West 6.9 mph - N/A   Mostly Cloudy
11:25 PM 39.2 °F 34.2 °F 35.6 °F 87% 29.54 in 10.0 mi West 6.9 mph - N/A   Overcast
11:55 PM 38.3 °F 33.2 °F 34.9 °F 87% 29.55 in 10.0 mi Variable 6.9 mph - 0.00 in   Mostly Cloudy